sensor_id;sensor_type;location;lat;lon;timestamp;pressure;altitude;pressure_sealevel;temperature;humidity
44044;BME280;29709;52.396;16.796;2023-06-22T00:02:34;101926.52;;;22.56;81.76
44044;BME280;29709;52.396;16.796;2023-06-22T00:05:48;101930.63;;;22.53;79.52
44044;BME280;29709;52.396;16.796;2023-06-22T00:09:01;101927.84;;;22.46;81.75
44044;BME280;29709;52.396;16.796;2023-06-22T00:12:16;101936.70;;;22.43;81.40
44044;BME280;29709;52.396;16.796;2023-06-22T00:15:29;101946.39;;;22.41;81.24
44044;BME280;29709;52.396;16.796;2023-06-22T00:18:42;101961.49;;;22.33;79.60
44044;BME280;29709;52.396;16.796;2023-06-22T00:21:59;101966.90;;;22.22;81.32
44044;BME280;29709;52.396;16.796;2023-06-22T00:25:39;101977.03;;;22.09;81.95
44044;BME280;29709;52.396;16.796;2023-06-22T00:28:55;101968.64;;;22.09;82.86
44044;BME280;29709;52.396;16.796;2023-06-22T00:32:08;101966.89;;;22.08;83.04
44044;BME280;29709;52.396;16.796;2023-06-22T00:35:21;101960.42;;;22.08;81.79
44044;BME280;29709;52.396;16.796;2023-06-22T00:38:34;101968.83;;;22.08;81.97
44044;BME280;29709;52.396;16.796;2023-06-22T00:41:53;101969.44;;;21.97;83.80
44044;BME280;29709;52.396;16.796;2023-06-22T00:45:06;101969.44;;;21.97;83.11
44044;BME280;29709;52.396;16.796;2023-06-22T00:48:20;101970.08;;;21.99;82.47
44044;BME280;29709;52.396;16.796;2023-06-22T00:51:33;101976.34;;;21.94;82.76
44044;BME280;29709;52.396;16.796;2023-06-22T00:54:51;101977.64;;;21.92;78.57
44044;BME280;29709;52.396;16.796;2023-06-22T00:58:06;101973.54;;;21.81;80.96
44044;BME280;29709;52.396;16.796;2023-06-22T01:01:23;101980.22;;;21.80;81.86
44044;BME280;29709;52.396;16.796;2023-06-22T01:04:37;101975.25;;;21.75;80.55
44044;BME280;29709;52.396;16.796;2023-06-22T01:08:02;101975.66;;;21.66;81.58
44044;BME280;29709;52.396;16.796;2023-06-22T01:11:28;101985.13;;;21.65;83.03
44044;BME280;29709;52.396;16.796;2023-06-22T01:14:55;101976.10;;;21.63;80.56
44044;BME280;29709;52.396;16.796;2023-06-22T01:18:11;101988.12;;;21.56;81.06
44044;BME280;29709;52.396;16.796;2023-06-22T01:21:28;101978.87;;;21.49;82.37
44044;BME280;29709;52.396;16.796;2023-06-22T01:28:22;101984.87;;;21.46;83.16
44044;BME280;29709;52.396;16.796;2023-06-22T01:31:34;101969.18;;;21.39;82.29
44044;BME280;29709;52.396;16.796;2023-06-22T01:34:49;101986.35;;;21.36;84.10
44044;BME280;29709;52.396;16.796;2023-06-22T01:38:03;101994.57;;;21.37;84.94
44044;BME280;29709;52.396;16.796;2023-06-22T01:41:17;101998.41;;;21.36;81.59
44044;BME280;29709;52.396;16.796;2023-06-22T01:44:31;102003.34;;;21.34;82.98
44044;BME280;29709;52.396;16.796;2023-06-22T01:47:44;102003.56;;;21.32;83.22
44044;BME280;29709;52.396;16.796;2023-06-22T01:50:58;102005.51;;;21.32;83.39
44044;BME280;29709;52.396;16.796;2023-06-22T01:54:11;102010.02;;;21.26;82.84
44044;BME280;29709;52.396;16.796;2023-06-22T01:57:25;102007.80;;;21.22;82.31
44044;BME280;29709;52.396;16.796;2023-06-22T02:00:45;102000.70;;;21.19;83.33
44044;BME280;29709;52.396;16.796;2023-06-22T02:04:09;101995.54;;;21.16;82.39
44044;BME280;29709;52.396;16.796;2023-06-22T02:07:29;102009.05;;;21.13;83.75
44044;BME280;29709;52.396;16.796;2023-06-22T02:10:45;102019.16;;;21.14;82.65
44044;BME280;29709;52.396;16.796;2023-06-22T02:14:00;102018.73;;;21.10;81.21
44044;BME280;29709;52.396;16.796;2023-06-22T02:17:14;102021.08;;;21.07;82.23
44044;BME280;29709;52.396;16.796;2023-06-22T02:20:27;102017.60;;;21.04;81.31
44044;BME280;29709;52.396;16.796;2023-06-22T02:23:41;102032.87;;;21.02;79.81
44044;BME280;29709;52.396;16.796;2023-06-22T02:26:54;102039.48;;;20.94;82.79
44044;BME280;29709;52.396;16.796;2023-06-22T02:30:08;102050.23;;;20.91;82.06
44044;BME280;29709;52.396;16.796;2023-06-22T02:33:26;102041.62;;;20.86;84.37
44044;BME280;29709;52.396;16.796;2023-06-22T02:36:40;102048.06;;;20.86;83.11
44044;BME280;29709;52.396;16.796;2023-06-22T02:39:53;102047.86;;;20.88;85.85
44044;BME280;29709;52.396;16.796;2023-06-22T02:43:06;102047.20;;;20.86;84.05
44044;BME280;29709;52.396;16.796;2023-06-22T02:46:19;102054.90;;;20.84;85.26
44044;BME280;29709;52.396;16.796;2023-06-22T02:49:33;102052.11;;;20.84;85.50
44044;BME280;29709;52.396;16.796;2023-06-22T02:52:46;102049.14;;;20.85;85.45
44044;BME280;29709;52.396;16.796;2023-06-22T02:56:02;102053.23;;;20.89;85.01
44044;BME280;29709;52.396;16.796;2023-06-22T02:59:18;102049.36;;;20.90;84.72
44044;BME280;29709;52.396;16.796;2023-06-22T03:02:36;102043.77;;;20.90;85.65
44044;BME280;29709;52.396;16.796;2023-06-22T03:05:49;102044.42;;;20.92;82.48
44044;BME280;29709;52.396;16.796;2023-06-22T03:09:06;102046.57;;;20.90;84.84
44044;BME280;29709;52.396;16.796;2023-06-22T03:12:19;102055.17;;;20.89;84.78
44044;BME280;29709;52.396;16.796;2023-06-22T03:15:32;102056.23;;;20.88;84.90
44044;BME280;29709;52.396;16.796;2023-06-22T03:18:46;102054.73;;;20.85;85.06
44044;BME280;29709;52.396;16.796;2023-06-22T03:22:00;102057.31;;;20.87;83.89
44044;BME280;29709;52.396;16.796;2023-06-22T03:25:13;102055.17;;;20.89;85.35
44044;BME280;29709;52.396;16.796;2023-06-22T03:28:27;102068.13;;;20.96;83.86
44044;BME280;29709;52.396;16.796;2023-06-22T03:31:41;102065.98;;;20.98;85.25
44044;BME280;29709;52.396;16.796;2023-06-22T03:34:54;102057.58;;;20.98;84.78
44044;BME280;29709;52.396;16.796;2023-06-22T03:38:11;102051.99;;;20.98;83.86
44044;BME280;29709;52.396;16.796;2023-06-22T03:41:24;102056.73;;;20.98;83.98
44044;BME280;29709;52.396;16.796;2023-06-22T03:44:38;102055.39;;;20.94;85.64
44044;BME280;29709;52.396;16.796;2023-06-22T03:47:51;102062.73;;;20.95;84.39
44044;BME280;29709;52.396;16.796;2023-06-22T03:51:04;102056.07;;;20.96;82.63
44044;BME280;29709;52.396;16.796;2023-06-22T03:54:17;102064.90;;;20.99;82.93
44044;BME280;29709;52.396;16.796;2023-06-22T03:57:30;102065.98;;;20.98;82.45
44044;BME280;29709;52.396;16.796;2023-06-22T04:00:44;102077.09;;;20.92;84.29
44044;BME280;29709;52.396;16.796;2023-06-22T04:03:57;102089.36;;;20.91;83.84
44044;BME280;29709;52.396;16.796;2023-06-22T04:07:11;102084.67;;;20.98;82.81
44044;BME280;29709;52.396;16.796;2023-06-22T04:10:24;102093.29;;;21.03;82.89
44044;BME280;29709;52.396;16.796;2023-06-22T04:13:37;102091.61;;;21.09;81.90
44044;BME280;29709;52.396;16.796;2023-06-22T04:16:51;102104.52;;;21.10;82.83
44044;BME280;29709;52.396;16.796;2023-06-22T04:20:05;102101.94;;;21.08;81.48
44044;BME280;29709;52.396;16.796;2023-06-22T04:23:19;102101.29;;;21.06;81.67
44044;BME280;29709;52.396;16.796;2023-06-22T04:26:32;102098.92;;;21.10;80.80
44044;BME280;29709;52.396;16.796;2023-06-22T04:29:50;102105.38;;;21.10;80.74
44044;BME280;29709;52.396;16.796;2023-06-22T04:33:04;102105.59;;;21.09;80.49
44044;BME280;29709;52.396;16.796;2023-06-22T04:36:17;102110.34;;;21.15;79.71
44044;BME280;29709;52.396;16.796;2023-06-22T04:39:30;102110.81;;;21.18;79.78
44044;BME280;29709;52.396;16.796;2023-06-22T04:42:44;102116.19;;;21.20;78.83
44044;BME280;29709;52.396;16.796;2023-06-22T04:46:06;102105.23;;;21.25;78.25
44044;BME280;29709;52.396;16.796;2023-06-22T04:49:20;102114.56;;;21.32;77.64
44044;BME280;29709;52.396;16.796;2023-06-22T04:52:34;102110.27;;;21.36;77.25
44044;BME280;29709;52.396;16.796;2023-06-22T04:55:47;102107.55;;;21.49;77.15
44044;BME280;29709;52.396;16.796;2023-06-22T04:59:02;102114.44;;;21.47;76.52
44044;BME280;29709;52.396;16.796;2023-06-22T05:02:18;102114.44;;;21.53;76.27
44044;BME280;29709;52.396;16.796;2023-06-22T05:05:31;102112.54;;;21.60;76.27
44044;BME280;29709;52.396;16.796;2023-06-22T05:08:44;102109.75;;;21.67;75.37
44044;BME280;29709;52.396;16.796;2023-06-22T05:11:58;102106.37;;;21.85;75.01
44044;BME280;29709;52.396;16.796;2023-06-22T05:15:14;102115.03;;;22.03;73.19
44044;BME280;29709;52.396;16.796;2023-06-22T05:18:30;102109.30;;;22.31;72.78
44044;BME280;29709;52.396;16.796;2023-06-22T05:21:43;102105.42;;;22.52;71.95
44044;BME280;29709;52.396;16.796;2023-06-22T05:24:56;102102.61;;;22.72;70.82
44044;BME280;29709;52.396;16.796;2023-06-22T05:28:10;102098.06;;;22.91;69.21
44044;BME280;29709;52.396;16.796;2023-06-22T05:31:25;102100.91;;;22.84;67.65
44044;BME280;29709;52.396;16.796;2023-06-22T05:34:38;102097.84;;;22.79;67.53
44044;BME280;29709;52.396;16.796;2023-06-22T05:37:52;102102.38;;;22.73;67.15
44044;BME280;29709;52.396;16.796;2023-06-22T05:41:05;102109.26;;;22.71;66.57
44044;BME280;29709;52.396;16.796;2023-06-22T05:44:19;102107.55;;;22.76;66.92
44044;BME280;29709;52.396;16.796;2023-06-22T05:47:32;102100.03;;;22.84;66.53
44044;BME280;29709;52.396;16.796;2023-06-22T05:50:45;102113.80;;;22.98;65.96
44044;BME280;29709;52.396;16.796;2023-06-22T05:53:59;102110.13;;;23.04;66.29
44044;BME280;29709;52.396;16.796;2023-06-22T05:57:12;102108.33;;;23.23;65.22
44044;BME280;29709;52.396;16.796;2023-06-22T06:00:25;102116.09;;;23.35;64.19
44044;BME280;29709;52.396;16.796;2023-06-22T06:03:38;102114.53;;;23.45;65.07
44044;BME280;29709;52.396;16.796;2023-06-22T06:06:53;102107.14;;;23.57;63.20
44044;BME280;29709;52.396;16.796;2023-06-22T06:10:07;102108.82;;;23.72;62.62
44044;BME280;29709;52.396;16.796;2023-06-22T06:13:20;102112.38;;;23.92;62.00
44044;BME280;29709;52.396;16.796;2023-06-22T06:16:33;102120.48;;;24.07;62.04
44044;BME280;29709;52.396;16.796;2023-06-22T06:19:47;102120.34;;;24.33;61.29
44044;BME280;29709;52.396;16.796;2023-06-22T06:23:00;102113.52;;;24.47;60.58
44044;BME280;29709;52.396;16.796;2023-06-22T06:26:13;102112.24;;;24.68;59.83
44044;BME280;29709;52.396;16.796;2023-06-22T06:29:29;102108.29;;;24.76;58.75
44044;BME280;29709;52.396;16.796;2023-06-22T06:32:43;102115.83;;;25.00;59.10
44044;BME280;29709;52.396;16.796;2023-06-22T06:35:58;102114.96;;;25.25;57.83
44044;BME280;29709;52.396;16.796;2023-06-22T06:39:16;102119.32;;;25.39;57.62
44044;BME280;29709;52.396;16.796;2023-06-22T06:42:29;102124.55;;;25.72;58.41
44044;BME280;29709;52.396;16.796;2023-06-22T06:45:42;102128.12;;;25.98;55.06
44044;BME280;29709;52.396;16.796;2023-06-22T06:48:55;102129.27;;;26.08;54.88
44044;BME280;29709;52.396;16.796;2023-06-22T06:52:08;102136.52;;;26.16;54.67
44044;BME280;29709;52.396;16.796;2023-06-22T06:55:22;102136.19;;;26.36;54.20
44044;BME280;29709;52.396;16.796;2023-06-22T06:58:41;102140.55;;;26.38;53.87
44044;BME280;29709;52.396;16.796;2023-06-22T07:01:55;102139.46;;;26.51;52.91
44044;BME280;29709;52.396;16.796;2023-06-22T07:05:10;102136.37;;;26.41;51.92
44044;BME280;29709;52.396;16.796;2023-06-22T07:08:24;102142.25;;;26.09;50.95
44044;BME280;29709;52.396;16.796;2023-06-22T07:11:37;102138.66;;;26.02;51.63
44044;BME280;29709;52.396;16.796;2023-06-22T07:14:52;102138.20;;;26.05;50.12
44044;BME280;29709;52.396;16.796;2023-06-22T07:18:05;102139.01;;;26.36;51.72
44044;BME280;29709;52.396;16.796;2023-06-22T07:21:18;102138.73;;;26.67;51.36
44044;BME280;29709;52.396;16.796;2023-06-22T07:24:31;102131.52;;;26.95;48.76
44044;BME280;29709;52.396;16.796;2023-06-22T07:28:07;102117.16;;;26.96;48.67
44044;BME280;29709;52.396;16.796;2023-06-22T07:31:08;102112.66;;;27.30;49.15
44044;BME280;29709;52.396;16.796;2023-06-22T07:34:22;102119.38;;;27.29;45.33
44044;BME280;29709;52.396;16.796;2023-06-22T07:37:35;102124.28;;;26.99;46.76
44044;BME280;29709;52.396;16.796;2023-06-22T07:40:48;102112.88;;;26.94;48.85
44044;BME280;29709;52.396;16.796;2023-06-22T07:44:03;102123.06;;;27.18;48.26
44044;BME280;29709;52.396;16.796;2023-06-22T07:47:17;102119.75;;;27.33;46.52
44044;BME280;29709;52.396;16.796;2023-06-22T07:50:33;102119.59;;;27.40;46.46
44044;BME280;29709;52.396;16.796;2023-06-22T07:53:46;102119.56;;;27.63;45.74
44044;BME280;29709;52.396;16.796;2023-06-22T07:57:00;102123.88;;;27.66;46.35
44044;BME280;29709;52.396;16.796;2023-06-22T08:00:13;102120.82;;;27.96;46.03
44044;BME280;29709;52.396;16.796;2023-06-22T08:03:29;102128.29;;;28.30;45.64
44044;BME280;29709;52.396;16.796;2023-06-22T08:06:42;102126.60;;;28.17;45.86
44044;BME280;29709;52.396;16.796;2023-06-22T08:09:56;102123.66;;;28.41;45.27
44044;BME280;29709;52.396;16.796;2023-06-22T08:13:10;102113.73;;;28.55;44.05
44044;BME280;29709;52.396;16.796;2023-06-22T08:16:23;102119.57;;;28.49;42.97
44044;BME280;29709;52.396;16.796;2023-06-22T08:19:37;102126.96;;;28.66;44.10
44044;BME280;29709;52.396;16.796;2023-06-22T08:22:52;102120.84;;;28.74;42.90
44044;BME280;29709;52.396;16.796;2023-06-22T08:26:06;102110.82;;;29.00;41.74
44044;BME280;29709;52.396;16.796;2023-06-22T08:31:25;102120.77;;;29.03;40.44
44044;BME280;29709;52.396;16.796;2023-06-22T08:34:38;102123.27;;;28.99;39.21
44044;BME280;29709;52.396;16.796;2023-06-22T08:37:56;102117.51;;;28.78;38.70
44044;BME280;29709;52.396;16.796;2023-06-22T08:41:10;102126.09;;;28.66;38.95
44044;BME280;29709;52.396;16.796;2023-06-22T08:44:23;102113.99;;;28.87;36.52
44044;BME280;29709;52.396;16.796;2023-06-22T08:47:37;102109.70;;;29.01;38.29
44044;BME280;29709;52.396;16.796;2023-06-22T08:50:50;102109.20;;;29.26;37.36
44044;BME280;29709;52.396;16.796;2023-06-22T08:54:03;102100.84;;;29.15;36.38
44044;BME280;29709;52.396;16.796;2023-06-22T08:57:17;102083.81;;;28.93;35.98
44044;BME280;29709;52.396;16.796;2023-06-22T09:00:30;102092.60;;;29.13;36.45
44044;BME280;29709;52.396;16.796;2023-06-22T09:03:48;102081.30;;;28.96;35.69
44044;BME280;29709;52.396;16.796;2023-06-22T09:07:10;102083.22;;;28.91;33.15
44044;BME280;29709;52.396;16.796;2023-06-22T09:10:25;102082.77;;;28.82;33.79
44044;BME280;29709;52.396;16.796;2023-06-22T09:13:39;102069.75;;;28.64;32.99
44044;BME280;29709;52.396;16.796;2023-06-22T09:16:52;102074.75;;;28.57;33.05
44044;BME280;29709;52.396;16.796;2023-06-22T09:20:06;102075.00;;;28.89;32.86
44044;BME280;29709;52.396;16.796;2023-06-22T09:23:23;102069.91;;;29.08;34.07
44044;BME280;29709;52.396;16.796;2023-06-22T09:26:36;102069.65;;;29.31;34.38
44044;BME280;29709;52.396;16.796;2023-06-22T09:29:50;102073.80;;;29.68;34.15
44044;BME280;29709;52.396;16.796;2023-06-22T09:33:03;102076.98;;;29.71;33.86
44044;BME280;29709;52.396;16.796;2023-06-22T09:36:16;102060.37;;;30.07;34.64
44044;BME280;29709;52.396;16.796;2023-06-22T09:39:37;102063.34;;;30.22;33.39
44044;BME280;29709;52.396;16.796;2023-06-22T09:42:50;102062.35;;;30.06;30.67
44044;BME280;29709;52.396;16.796;2023-06-22T09:46:03;102054.16;;;30.10;31.73
44044;BME280;29709;52.396;16.796;2023-06-22T09:49:16;102048.92;;;30.24;33.27
44044;BME280;29709;52.396;16.796;2023-06-22T09:52:29;102047.95;;;30.45;32.55
44044;BME280;29709;52.396;16.796;2023-06-22T09:55:42;102042.72;;;30.64;31.80
44044;BME280;29709;52.396;16.796;2023-06-22T09:58:55;102049.93;;;30.77;32.60
44044;BME280;29709;52.396;16.796;2023-06-22T10:02:09;102050.23;;;30.80;31.33
44044;BME280;29709;52.396;16.796;2023-06-22T10:05:22;102049.45;;;30.95;30.64
44044;BME280;29709;52.396;16.796;2023-06-22T10:08:35;102050.27;;;30.85;31.57
44044;BME280;29709;52.396;16.796;2023-06-22T10:11:49;102057.37;;;30.88;30.76
44044;BME280;29709;52.396;16.796;2023-06-22T10:15:02;102046.66;;;31.05;30.29
44044;BME280;29709;52.396;16.796;2023-06-22T10:18:16;102027.52;;;31.27;31.00
44044;BME280;29709;52.396;16.796;2023-06-22T10:21:29;102037.80;;;31.39;29.19
44044;BME280;29709;52.396;16.796;2023-06-22T10:24:43;102034.07;;;31.33;30.63
44044;BME280;29709;52.396;16.796;2023-06-22T10:27:58;102040.02;;;31.26;29.93
44044;BME280;29709;52.396;16.796;2023-06-22T10:31:16;102046.55;;;31.27;30.28
44044;BME280;29709;52.396;16.796;2023-06-22T10:34:29;102043.20;;;30.93;29.41
44044;BME280;29709;52.396;16.796;2023-06-22T10:37:43;102048.13;;;31.08;30.00
44044;BME280;29709;52.396;16.796;2023-06-22T10:40:59;102049.36;;;31.22;29.49
44044;BME280;29709;52.396;16.796;2023-06-22T10:44:12;102049.93;;;31.24;29.45
44044;BME280;29709;52.396;16.796;2023-06-22T10:47:26;102038.80;;;31.17;29.08
44044;BME280;29709;52.396;16.796;2023-06-22T10:50:39;102049.31;;;31.17;29.44
44044;BME280;29709;52.396;16.796;2023-06-22T10:53:53;102032.61;;;31.25;29.82
44044;BME280;29709;52.396;16.796;2023-06-22T10:57:06;102036.70;;;31.50;30.21
44044;BME280;29709;52.396;16.796;2023-06-22T11:00:20;102045.00;;;31.72;30.21
44044;BME280;29709;52.396;16.796;2023-06-22T11:03:34;102038.43;;;31.61;29.68
44044;BME280;29709;52.396;16.796;2023-06-22T11:06:48;102032.12;;;31.39;29.22
44044;BME280;29709;52.396;16.796;2023-06-22T11:10:02;102033.66;;;31.14;29.47
44044;BME280;29709;52.396;16.796;2023-06-22T11:13:16;102035.31;;;31.05;29.76
44044;BME280;29709;52.396;16.796;2023-06-22T11:16:29;102011.63;;;30.84;29.71
44044;BME280;29709;52.396;16.796;2023-06-22T11:19:44;102014.81;;;30.93;30.71
44044;BME280;29709;52.396;16.796;2023-06-22T11:22:57;102011.06;;;30.82;30.79
44044;BME280;29709;52.396;16.796;2023-06-22T11:26:10;102004.86;;;30.48;30.84
44044;BME280;29709;52.396;16.796;2023-06-22T11:29:24;102008.03;;;30.20;30.92
44044;BME280;29709;52.396;16.796;2023-06-22T11:32:37;102001.86;;;30.01;31.60
44044;BME280;29709;52.396;16.796;2023-06-22T11:35:50;102007.36;;;30.07;31.56
44044;BME280;29709;52.396;16.796;2023-06-22T11:39:03;102009.25;;;30.29;31.44
44044;BME280;29709;52.396;16.796;2023-06-22T11:42:18;102005.63;;;30.38;31.39
44044;BME280;29709;52.396;16.796;2023-06-22T11:45:31;101996.30;;;30.80;31.60
44044;BME280;29709;52.396;16.796;2023-06-22T11:48:44;101991.01;;;30.99;30.85
44044;BME280;29709;52.396;16.796;2023-06-22T11:51:58;101990.85;;;31.26;30.26
44044;BME280;29709;52.396;16.796;2023-06-22T11:55:12;101980.15;;;31.48;30.93
44044;BME280;29709;52.396;16.796;2023-06-22T11:58:25;101986.69;;;31.54;29.42
44044;BME280;29709;52.396;16.796;2023-06-22T12:01:38;101980.09;;;31.33;29.52
44044;BME280;29709;52.396;16.796;2023-06-22T12:04:52;101985.73;;;31.23;29.34
44044;BME280;29709;52.396;16.796;2023-06-22T12:08:07;101984.65;;;30.77;30.07
44044;BME280;29709;52.396;16.796;2023-06-22T12:11:20;101977.96;;;30.56;31.30
44044;BME280;29709;52.396;16.796;2023-06-22T12:14:34;101977.71;;;31.10;31.94
44044;BME280;29709;52.396;16.796;2023-06-22T12:17:47;101982.11;;;31.38;30.88
44044;BME280;29709;52.396;16.796;2023-06-22T12:21:01;101971.35;;;31.50;30.17
44044;BME280;29709;52.396;16.796;2023-06-22T12:24:14;101978.75;;;31.61;29.45
44044;BME280;29709;52.396;16.796;2023-06-22T12:27:27;101972.30;;;32.01;28.17
44044;BME280;29709;52.396;16.796;2023-06-22T12:30:43;101963.45;;;31.77;28.90
44044;BME280;29709;52.396;16.796;2023-06-22T12:33:56;101967.99;;;31.78;29.19
44044;BME280;29709;52.396;16.796;2023-06-22T12:37:10;101968.81;;;31.58;29.64
44044;BME280;29709;52.396;16.796;2023-06-22T12:40:24;101954.31;;;31.60;30.48
44044;BME280;29709;52.396;16.796;2023-06-22T12:43:37;101949.16;;;31.47;28.69
44044;BME280;29709;52.396;16.796;2023-06-22T12:46:50;101949.74;;;31.54;29.92
44044;BME280;29709;52.396;16.796;2023-06-22T12:50:04;101950.01;;;31.42;29.53
44044;BME280;29709;52.396;16.796;2023-06-22T12:53:18;101946.37;;;31.72;30.08
44044;BME280;29709;52.396;16.796;2023-06-22T12:56:31;101939.02;;;32.07;30.22
44044;BME280;29709;52.396;16.796;2023-06-22T12:59:45;101942.98;;;32.16;29.94
44044;BME280;29709;52.396;16.796;2023-06-22T13:02:58;101933.87;;;32.19;28.80
44044;BME280;29709;52.396;16.796;2023-06-22T13:06:11;101934.75;;;32.04;29.03
44044;BME280;29709;52.396;16.796;2023-06-22T13:09:25;101928.17;;;31.58;28.01
44044;BME280;29709;52.396;16.796;2023-06-22T13:12:38;101933.19;;;31.25;28.90
44044;BME280;29709;52.396;16.796;2023-06-22T13:15:51;101922.30;;;30.97;29.63
44044;BME280;29709;52.396;16.796;2023-06-22T13:19:06;101921.45;;;30.96;28.96
44044;BME280;29709;52.396;16.796;2023-06-22T13:22:29;101916.91;;;31.00;30.00
44044;BME280;29709;52.396;16.796;2023-06-22T13:25:43;101912.51;;;31.40;29.98
44044;BME280;29709;52.396;16.796;2023-06-22T13:28:56;101910.27;;;31.63;29.09
44044;BME280;29709;52.396;16.796;2023-06-22T13:32:10;101912.23;;;31.67;29.21
44044;BME280;29709;52.396;16.796;2023-06-22T13:35:23;101906.56;;;31.67;29.03
44044;BME280;29709;52.396;16.796;2023-06-22T13:38:37;101904.86;;;31.66;28.86
44044;BME280;29709;52.396;16.796;2023-06-22T13:41:53;101896.05;;;31.47;29.67
44044;BME280;29709;52.396;16.796;2023-06-22T13:45:07;101908.53;;;31.56;29.33
44044;BME280;29709;52.396;16.796;2023-06-22T13:48:20;101889.48;;;31.37;29.21
44044;BME280;29709;52.396;16.796;2023-06-22T13:51:36;101886.97;;;31.60;29.55
44044;BME280;29709;52.396;16.796;2023-06-22T13:54:49;101883.59;;;31.89;29.46
44044;BME280;29709;52.396;16.796;2023-06-22T13:58:02;101890.98;;;32.00;29.27
44044;BME280;29709;52.396;16.796;2023-06-22T14:01:15;101891.80;;;32.06;28.28
44044;BME280;29709;52.396;16.796;2023-06-22T14:04:29;101891.22;;;32.29;29.73
44044;BME280;29709;52.396;16.796;2023-06-22T14:07:42;101897.45;;;32.52;29.61
44044;BME280;29709;52.396;16.796;2023-06-22T14:10:55;101894.49;;;32.72;29.04
44044;BME280;29709;52.396;16.796;2023-06-22T14:14:08;101897.04;;;32.79;28.20
44044;BME280;29709;52.396;16.796;2023-06-22T14:17:21;101891.45;;;32.53;27.68
44044;BME280;29709;52.396;16.796;2023-06-22T14:20:38;101887.76;;;32.53;28.20
44044;BME280;29709;52.396;16.796;2023-06-22T14:23:53;101874.45;;;32.12;29.37
44044;BME280;29709;52.396;16.796;2023-06-22T14:27:06;101871.94;;;31.91;29.33
44044;BME280;29709;52.396;16.796;2023-06-22T14:30:21;101871.62;;;31.97;29.60
44044;BME280;29709;52.396;16.796;2023-06-22T14:33:34;101876.43;;;32.22;29.43
44044;BME280;29709;52.396;16.796;2023-06-22T14:36:48;101878.11;;;32.43;29.02
44044;BME280;29709;52.396;16.796;2023-06-22T14:40:01;101877.85;;;32.35;27.99
44044;BME280;29709;52.396;16.796;2023-06-22T14:43:14;101874.14;;;32.24;28.73
44044;BME280;29709;52.396;16.796;2023-06-22T14:46:27;101870.75;;;32.32;28.90
44044;BME280;29709;52.396;16.796;2023-06-22T14:49:40;101872.44;;;32.23;28.61
44044;BME280;29709;52.396;16.796;2023-06-22T14:52:54;101874.45;;;32.12;29.04
44044;BME280;29709;52.396;16.796;2023-06-22T14:56:07;101863.91;;;32.18;29.06
44044;BME280;29709;52.396;16.796;2023-06-22T14:59:20;101860.18;;;32.28;29.03
44044;BME280;29709;52.396;16.796;2023-06-22T15:02:33;101863.91;;;32.23;28.17
44044;BME280;29709;52.396;16.796;2023-06-22T15:05:47;101864.17;;;32.27;29.14
44044;BME280;29709;52.396;16.796;2023-06-22T15:09:00;101867.03;;;32.37;27.93
44044;BME280;29709;52.396;16.796;2023-06-22T15:12:13;101854.84;;;32.11;28.46
44044;BME280;29709;52.396;16.796;2023-06-22T15:15:26;101855.41;;;31.98;29.07
44044;BME280;29709;52.396;16.796;2023-06-22T15:18:39;101848.59;;;31.88;28.21
44044;BME280;29709;52.396;16.796;2023-06-22T15:21:54;101845.74;;;31.63;28.90
44044;BME280;29709;52.396;16.796;2023-06-22T15:25:08;101844.05;;;31.52;29.01
44044;BME280;29709;52.396;16.796;2023-06-22T15:28:21;101840.92;;;31.53;29.29
44044;BME280;29709;52.396;16.796;2023-06-22T15:31:34;101834.95;;;31.70;29.49
44044;BME280;29709;52.396;16.796;2023-06-22T15:34:47;101842.05;;;31.88;29.93
44044;BME280;29709;52.396;16.796;2023-06-22T15:38:06;101837.77;;;32.06;29.54
44044;BME280;29709;52.396;16.796;2023-06-22T15:41:19;101840.05;;;32.04;28.07
44044;BME280;29709;52.396;16.796;2023-06-22T15:44:32;101833.20;;;32.15;29.61
44044;BME280;29709;52.396;16.796;2023-06-22T15:47:45;101825.52;;;32.21;28.10
44044;BME280;29709;52.396;16.796;2023-06-22T15:50:58;101827.23;;;32.22;29.51
44044;BME280;29709;52.396;16.796;2023-06-22T15:54:14;101817.28;;;32.14;29.06
44044;BME280;29709;52.396;16.796;2023-06-22T15:57:27;101819.30;;;32.03;29.15
44044;BME280;29709;52.396;16.796;2023-06-22T16:00:41;101810.78;;;31.93;29.64
44044;BME280;29709;52.396;16.796;2023-06-22T16:03:55;101806.56;;;31.80;29.02
44044;BME280;29709;52.396;16.796;2023-06-22T16:07:08;101806.52;;;31.65;28.92
44044;BME280;29709;52.396;16.796;2023-06-22T16:10:21;101808.53;;;31.70;29.07
44044;BME280;29709;52.396;16.796;2023-06-22T16:13:34;101806.84;;;31.79;30.10
44044;BME280;29709;52.396;16.796;2023-06-22T16:16:48;101795.72;;;31.67;29.36
44044;BME280;29709;52.396;16.796;2023-06-22T16:20:02;101799.99;;;31.70;28.60
44044;BME280;29709;52.396;16.796;2023-06-22T16:23:15;101804.26;;;31.62;29.29
44044;BME280;29709;52.396;16.796;2023-06-22T16:26:34;101789.19;;;31.56;29.87
44044;BME280;29709;52.396;16.796;2023-06-22T16:29:48;101783.24;;;31.53;29.33
44044;BME280;29709;52.396;16.796;2023-06-22T16:33:02;101787.22;;;31.52;29.77
44044;BME280;29709;52.396;16.796;2023-06-22T16:36:15;101778.69;;;31.47;29.61
44044;BME280;29709;52.396;16.796;2023-06-22T16:39:29;101772.73;;;31.43;29.92
44044;BME280;29709;52.396;16.796;2023-06-22T16:42:45;101768.77;;;31.29;29.69
44044;BME280;29709;52.396;16.796;2023-06-22T16:45:59;101766.19;;;31.22;30.18
44044;BME280;29709;52.396;16.796;2023-06-22T16:49:12;101755.67;;;31.18;30.02